sensor_id;sensor_type;location;lat;lon;timestamp;P1;durP1;ratioP1;P2;durP2;ratioP2
60436;SDS011;46289;51.992;4.498;2023-04-15T00:00:30;14.98;;;7.38;;
60436;SDS011;46289;51.992;4.498;2023-04-15T00:02:34;16.17;;;6.95;;
60436;SDS011;46289;51.992;4.498;2023-04-15T00:04:42;11.57;;;6.88;;
60436;SDS011;46289;51.992;4.498;2023-04-15T00:06:50;13.02;;;7.82;;
60436;SDS011;46289;51.992;4.498;2023-04-15T00:08:56;17.00;;;7.15;;
60436;SDS011;46289;51.992;4.498;2023-04-15T00:11:01;12.32;;;7.28;;
60436;SDS011;46289;51.992;4.498;2023-04-15T00:13:07;18.33;;;7.32;;
60436;SDS011;46289;51.992;4.498;2023-04-15T00:15:12;16.05;;;8.48;;
60436;SDS011;46289;51.992;4.498;2023-04-15T00:17:19;12.10;;;6.60;;
60436;SDS011;46289;51.992;4.498;2023-04-15T00:19:25;11.93;;;6.88;;
60436;SDS011;46289;51.992;4.498;2023-04-15T00:21:33;15.85;;;7.63;;
60436;SDS011;46289;51.992;4.498;2023-04-15T00:23:38;13.25;;;7.43;;
60436;SDS011;46289;51.992;4.498;2023-04-15T00:25:50;16.75;;;7.18;;
60436;SDS011;46289;51.992;4.498;2023-04-15T00:27:55;13.98;;;8.35;;
60436;SDS011;46289;51.992;4.498;2023-04-15T00:30:01;12.73;;;7.38;;
60436;SDS011;46289;51.992;4.498;2023-04-15T00:32:07;16.98;;;7.90;;
60436;SDS011;46289;51.992;4.498;2023-04-15T00:34:12;14.02;;;7.78;;
60436;SDS011;46289;51.992;4.498;2023-04-15T00:36:19;13.30;;;6.90;;
60436;SDS011;46289;51.992;4.498;2023-04-15T00:38:29;16.55;;;7.32;;
60436;SDS011;46289;51.992;4.498;2023-04-15T00:40:35;17.08;;;8.20;;
60436;SDS011;46289;51.992;4.498;2023-04-15T00:42:41;14.95;;;8.25;;
60436;SDS011;46289;51.992;4.498;2023-04-15T00:44:46;14.77;;;8.30;;
60436;SDS011;46289;51.992;4.498;2023-04-15T00:46:52;23.63;;;8.93;;
60436;SDS011;46289;51.992;4.498;2023-04-15T00:48:57;15.30;;;8.43;;
60436;SDS011;46289;51.992;4.498;2023-04-15T00:51:03;14.60;;;8.45;;
60436;SDS011;46289;51.992;4.498;2023-04-15T00:53:09;15.02;;;7.90;;
60436;SDS011;46289;51.992;4.498;2023-04-15T00:55:14;17.45;;;8.95;;
60436;SDS011;46289;51.992;4.498;2023-04-15T00:57:20;16.88;;;8.70;;
60436;SDS011;46289;51.992;4.498;2023-04-15T00:59:26;16.27;;;8.27;;
60436;SDS011;46289;51.992;4.498;2023-04-15T01:01:33;19.58;;;8.90;;
60436;SDS011;46289;51.992;4.498;2023-04-15T01:03:39;18.88;;;9.73;;
60436;SDS011;46289;51.992;4.498;2023-04-15T01:05:44;19.73;;;9.68;;
60436;SDS011;46289;51.992;4.498;2023-04-15T01:07:49;16.63;;;8.88;;
60436;SDS011;46289;51.992;4.498;2023-04-15T01:09:54;20.98;;;9.10;;
60436;SDS011;46289;51.992;4.498;2023-04-15T01:12:02;16.48;;;8.88;;
60436;SDS011;46289;51.992;4.498;2023-04-15T01:14:09;18.17;;;7.82;;
60436;SDS011;46289;51.992;4.498;2023-04-15T01:16:14;19.45;;;8.95;;
60436;SDS011;46289;51.992;4.498;2023-04-15T01:18:20;13.50;;;8.52;;
60436;SDS011;46289;51.992;4.498;2023-04-15T01:20:25;16.38;;;8.70;;
60436;SDS011;46289;51.992;4.498;2023-04-15T01:22:31;19.13;;;9.60;;
60436;SDS011;46289;51.992;4.498;2023-04-15T01:24:38;16.80;;;9.70;;
60436;SDS011;46289;51.992;4.498;2023-04-15T01:26:46;18.35;;;9.15;;
60436;SDS011;46289;51.992;4.498;2023-04-15T01:28:53;17.58;;;8.60;;
60436;SDS011;46289;51.992;4.498;2023-04-15T01:31:05;16.70;;;9.13;;
60436;SDS011;46289;51.992;4.498;2023-04-15T01:33:11;18.17;;;8.57;;
60436;SDS011;46289;51.992;4.498;2023-04-15T01:35:16;17.92;;;9.07;;
60436;SDS011;46289;51.992;4.498;2023-04-15T01:37:24;14.82;;;8.85;;
60436;SDS011;46289;51.992;4.498;2023-04-15T01:39:29;20.73;;;10.07;;
60436;SDS011;46289;51.992;4.498;2023-04-15T01:41:35;19.98;;;8.85;;
60436;SDS011;46289;51.992;4.498;2023-04-15T01:43:45;18.38;;;9.90;;
60436;SDS011;46289;51.992;4.498;2023-04-15T01:45:50;18.95;;;9.02;;
60436;SDS011;46289;51.992;4.498;2023-04-15T01:47:56;20.27;;;9.32;;
60436;SDS011;46289;51.992;4.498;2023-04-15T01:50:01;17.98;;;9.52;;
60436;SDS011;46289;51.992;4.498;2023-04-15T01:52:08;22.40;;;10.43;;
60436;SDS011;46289;51.992;4.498;2023-04-15T01:54:13;14.63;;;8.82;;
60436;SDS011;46289;51.992;4.498;2023-04-15T01:56:21;20.38;;;9.88;;
60436;SDS011;46289;51.992;4.498;2023-04-15T01:58:27;16.52;;;9.13;;
60436;SDS011;46289;51.992;4.498;2023-04-15T02:00:34;14.35;;;8.50;;
60436;SDS011;46289;51.992;4.498;2023-04-15T02:02:39;17.20;;;9.20;;
60436;SDS011;46289;51.992;4.498;2023-04-15T02:04:45;18.45;;;9.65;;
60436;SDS011;46289;51.992;4.498;2023-04-15T02:06:50;19.35;;;9.85;;
60436;SDS011;46289;51.992;4.498;2023-04-15T02:08:56;21.50;;;10.23;;
60436;SDS011;46289;51.992;4.498;2023-04-15T02:11:02;19.38;;;9.07;;
60436;SDS011;46289;51.992;4.498;2023-04-15T02:13:07;17.02;;;9.43;;
60436;SDS011;46289;51.992;4.498;2023-04-15T02:15:12;19.20;;;9.75;;
60436;SDS011;46289;51.992;4.498;2023-04-15T02:17:23;17.80;;;10.05;;
60436;SDS011;46289;51.992;4.498;2023-04-15T02:19:28;17.13;;;9.35;;
60436;SDS011;46289;51.992;4.498;2023-04-15T02:21:33;18.02;;;9.80;;
60436;SDS011;46289;51.992;4.498;2023-04-15T02:23:40;18.88;;;9.25;;
60436;SDS011;46289;51.992;4.498;2023-04-15T02:25:45;17.17;;;9.52;;
60436;SDS011;46289;51.992;4.498;2023-04-15T02:27:56;18.65;;;9.05;;
60436;SDS011;46289;51.992;4.498;2023-04-15T02:30:01;17.38;;;9.90;;
60436;SDS011;46289;51.992;4.498;2023-04-15T02:32:06;19.75;;;10.02;;
60436;SDS011;46289;51.992;4.498;2023-04-15T02:34:15;17.13;;;9.30;;
60436;SDS011;46289;51.992;4.498;2023-04-15T02:36:19;17.33;;;9.43;;
60436;SDS011;46289;51.992;4.498;2023-04-15T02:38:25;16.80;;;9.85;;
60436;SDS011;46289;51.992;4.498;2023-04-15T02:40:33;16.33;;;9.57;;
60436;SDS011;46289;51.992;4.498;2023-04-15T02:42:40;19.30;;;9.15;;
60436;SDS011;46289;51.992;4.498;2023-04-15T02:44:46;18.95;;;10.40;;
60436;SDS011;46289;51.992;4.498;2023-04-15T02:46:54;15.68;;;9.20;;
60436;SDS011;46289;51.992;4.498;2023-04-15T02:48:59;18.08;;;8.75;;
60436;SDS011;46289;51.992;4.498;2023-04-15T02:51:15;17.30;;;8.95;;
60436;SDS011;46289;51.992;4.498;2023-04-15T02:53:23;18.95;;;9.63;;
60436;SDS011;46289;51.992;4.498;2023-04-15T02:55:31;19.02;;;9.90;;
60436;SDS011;46289;51.992;4.498;2023-04-15T02:57:37;15.48;;;9.85;;
60436;SDS011;46289;51.992;4.498;2023-04-15T02:59:42;21.10;;;10.25;;
60436;SDS011;46289;51.992;4.498;2023-04-15T03:01:47;19.48;;;9.90;;
60436;SDS011;46289;51.992;4.498;2023-04-15T03:03:52;16.15;;;8.50;;
60436;SDS011;46289;51.992;4.498;2023-04-15T03:05:57;16.73;;;9.43;;
60436;SDS011;46289;51.992;4.498;2023-04-15T03:08:05;18.20;;;9.65;;
60436;SDS011;46289;51.992;4.498;2023-04-15T03:10:10;18.42;;;9.82;;
60436;SDS011;46289;51.992;4.498;2023-04-15T03:12:16;18.75;;;9.88;;
60436;SDS011;46289;51.992;4.498;2023-04-15T03:14:21;20.27;;;9.85;;
60436;SDS011;46289;51.992;4.498;2023-04-15T03:16:26;18.35;;;9.75;;
60436;SDS011;46289;51.992;4.498;2023-04-15T03:18:31;22.98;;;10.38;;
60436;SDS011;46289;51.992;4.498;2023-04-15T03:20:38;24.73;;;10.43;;
60436;SDS011;46289;51.992;4.498;2023-04-15T03:22:43;20.75;;;11.27;;
60436;SDS011;46289;51.992;4.498;2023-04-15T03:24:51;22.30;;;10.50;;
60436;SDS011;46289;51.992;4.498;2023-04-15T03:26:56;19.98;;;10.15;;
60436;SDS011;46289;51.992;4.498;2023-04-15T03:29:02;19.02;;;10.27;;
60436;SDS011;46289;51.992;4.498;2023-04-15T03:31:07;18.20;;;10.75;;
60436;SDS011;46289;51.992;4.498;2023-04-15T03:33:13;21.38;;;10.60;;
60436;SDS011;46289;51.992;4.498;2023-04-15T03:35:20;16.63;;;10.15;;
60436;SDS011;46289;51.992;4.498;2023-04-15T03:37:24;18.25;;;10.38;;
60436;SDS011;46289;51.992;4.498;2023-04-15T03:39:29;22.17;;;11.40;;
60436;SDS011;46289;51.992;4.498;2023-04-15T03:41:37;17.02;;;9.93;;
60436;SDS011;46289;51.992;4.498;2023-04-15T03:43:42;16.27;;;9.82;;
60436;SDS011;46289;51.992;4.498;2023-04-15T03:45:50;19.42;;;11.25;;
60436;SDS011;46289;51.992;4.498;2023-04-15T03:47:55;20.00;;;10.30;;
60436;SDS011;46289;51.992;4.498;2023-04-15T03:50:19;20.48;;;10.88;;
60436;SDS011;46289;51.992;4.498;2023-04-15T03:52:25;18.95;;;10.45;;
60436;SDS011;46289;51.992;4.498;2023-04-15T03:54:30;21.77;;;10.77;;
60436;SDS011;46289;51.992;4.498;2023-04-15T03:56:38;19.92;;;11.02;;
60436;SDS011;46289;51.992;4.498;2023-04-15T03:58:43;21.45;;;10.93;;
60436;SDS011;46289;51.992;4.498;2023-04-15T04:00:51;21.05;;;11.80;;
60436;SDS011;46289;51.992;4.498;2023-04-15T04:02:56;20.77;;;11.25;;
60436;SDS011;46289;51.992;4.498;2023-04-15T04:05:02;20.00;;;10.95;;
60436;SDS011;46289;51.992;4.498;2023-04-15T04:07:07;19.55;;;9.98;;
60436;SDS011;46289;51.992;4.498;2023-04-15T04:09:19;20.67;;;10.68;;
60436;SDS011;46289;51.992;4.498;2023-04-15T04:11:24;18.92;;;11.30;;
60436;SDS011;46289;51.992;4.498;2023-04-15T04:13:32;20.23;;;11.00;;
60436;SDS011;46289;51.992;4.498;2023-04-15T04:15:37;25.60;;;11.98;;
60436;SDS011;46289;51.992;4.498;2023-04-15T04:17:43;20.85;;;11.32;;
60436;SDS011;46289;51.992;4.498;2023-04-15T04:19:48;22.38;;;11.32;;
60436;SDS011;46289;51.992;4.498;2023-04-15T04:21:54;17.58;;;10.40;;
60436;SDS011;46289;51.992;4.498;2023-04-15T04:23:59;19.75;;;10.52;;
60436;SDS011;46289;51.992;4.498;2023-04-15T04:26:04;21.15;;;11.25;;
60436;SDS011;46289;51.992;4.498;2023-04-15T04:28:09;18.95;;;10.95;;
60436;SDS011;46289;51.992;4.498;2023-04-15T04:30:19;22.02;;;10.63;;
60436;SDS011;46289;51.992;4.498;2023-04-15T04:32:25;22.90;;;10.80;;
60436;SDS011;46289;51.992;4.498;2023-04-15T04:34:30;21.90;;;10.38;;
60436;SDS011;46289;51.992;4.498;2023-04-15T04:36:35;21.23;;;10.52;;
60436;SDS011;46289;51.992;4.498;2023-04-15T04:38:41;24.70;;;10.93;;
60436;SDS011;46289;51.992;4.498;2023-04-15T04:40:46;21.88;;;10.93;;
60436;SDS011;46289;51.992;4.498;2023-04-15T04:42:51;19.67;;;10.13;;
60436;SDS011;46289;51.992;4.498;2023-04-15T04:44:56;19.95;;;10.48;;
60436;SDS011;46289;51.992;4.498;2023-04-15T04:47:03;23.38;;;11.20;;
60436;SDS011;46289;51.992;4.498;2023-04-15T04:49:08;21.88;;;10.80;;
60436;SDS011;46289;51.992;4.498;2023-04-15T04:51:14;19.85;;;10.80;;
60436;SDS011;46289;51.992;4.498;2023-04-15T04:53:19;21.98;;;11.07;;
60436;SDS011;46289;51.992;4.498;2023-04-15T04:55:24;24.08;;;11.80;;
60436;SDS011;46289;51.992;4.498;2023-04-15T04:57:30;24.65;;;11.82;;
60436;SDS011;46289;51.992;4.498;2023-04-15T04:59:36;26.02;;;11.30;;
60436;SDS011;46289;51.992;4.498;2023-04-15T05:01:41;24.20;;;11.98;;
60436;SDS011;46289;51.992;4.498;2023-04-15T05:03:52;23.02;;;12.10;;
60436;SDS011;46289;51.992;4.498;2023-04-15T05:05:58;26.60;;;12.43;;
60436;SDS011;46289;51.992;4.498;2023-04-15T05:08:04;22.65;;;10.57;;
60436;SDS011;46289;51.992;4.498;2023-04-15T05:10:09;24.55;;;10.27;;
60436;SDS011;46289;51.992;4.498;2023-04-15T05:12:19;20.73;;;11.10;;
60436;SDS011;46289;51.992;4.498;2023-04-15T05:14:24;25.77;;;11.40;;
60436;SDS011;46289;51.992;4.498;2023-04-15T05:16:29;21.58;;;10.10;;
60436;SDS011;46289;51.992;4.498;2023-04-15T05:18:34;21.42;;;9.82;;
60436;SDS011;46289;51.992;4.498;2023-04-15T05:20:42;19.10;;;10.88;;
60436;SDS011;46289;51.992;4.498;2023-04-15T05:22:49;18.85;;;10.27;;
60436;SDS011;46289;51.992;4.498;2023-04-15T05:24:54;23.08;;;12.15;;
60436;SDS011;46289;51.992;4.498;2023-04-15T05:26:59;24.77;;;12.60;;
60436;SDS011;46289;51.992;4.498;2023-04-15T05:29:04;23.05;;;11.57;;
60436;SDS011;46289;51.992;4.498;2023-04-15T05:31:09;19.95;;;10.45;;
60436;SDS011;46289;51.992;4.498;2023-04-15T05:33:14;26.48;;;12.00;;
60436;SDS011;46289;51.992;4.498;2023-04-15T05:35:20;23.27;;;12.05;;
60436;SDS011;46289;51.992;4.498;2023-04-15T05:37:27;27.38;;;11.88;;
60436;SDS011;46289;51.992;4.498;2023-04-15T05:39:32;23.05;;;11.98;;
60436;SDS011;46289;51.992;4.498;2023-04-15T05:41:40;23.88;;;11.70;;
60436;SDS011;46289;51.992;4.498;2023-04-15T05:43:46;22.40;;;11.68;;
60436;SDS011;46289;51.992;4.498;2023-04-15T05:45:52;25.15;;;12.55;;
60436;SDS011;46289;51.992;4.498;2023-04-15T05:47:57;23.33;;;12.43;;
60436;SDS011;46289;51.992;4.498;2023-04-15T05:50:03;24.55;;;11.25;;
60436;SDS011;46289;51.992;4.498;2023-04-15T05:52:08;23.70;;;10.85;;
60436;SDS011;46289;51.992;4.498;2023-04-15T05:54:20;22.80;;;11.25;;
60436;SDS011;46289;51.992;4.498;2023-04-15T05:56:28;24.98;;;12.00;;
60436;SDS011;46289;51.992;4.498;2023-04-15T05:58:33;24.90;;;12.20;;
60436;SDS011;46289;51.992;4.498;2023-04-15T06:00:38;23.52;;;12.13;;
60436;SDS011;46289;51.992;4.498;2023-04-15T06:02:43;25.33;;;12.55;;
60436;SDS011;46289;51.992;4.498;2023-04-15T06:04:50;25.35;;;11.38;;
60436;SDS011;46289;51.992;4.498;2023-04-15T06:06:55;28.90;;;12.93;;
60436;SDS011;46289;51.992;4.498;2023-04-15T06:09:01;19.95;;;11.18;;
60436;SDS011;46289;51.992;4.498;2023-04-15T06:11:08;23.60;;;11.18;;
60436;SDS011;46289;51.992;4.498;2023-04-15T06:13:13;26.65;;;12.57;;
60436;SDS011;46289;51.992;4.498;2023-04-15T06:15:20;23.52;;;11.73;;
60436;SDS011;46289;51.992;4.498;2023-04-15T06:17:26;27.17;;;12.32;;
60436;SDS011;46289;51.992;4.498;2023-04-15T06:19:31;24.52;;;11.57;;
60436;SDS011;46289;51.992;4.498;2023-04-15T06:21:36;24.63;;;11.50;;
60436;SDS011;46289;51.992;4.498;2023-04-15T06:23:43;24.63;;;11.23;;
60436;SDS011;46289;51.992;4.498;2023-04-15T06:25:51;19.25;;;10.07;;
60436;SDS011;46289;51.992;4.498;2023-04-15T06:27:59;24.35;;;12.15;;
60436;SDS011;46289;51.992;4.498;2023-04-15T06:30:04;28.80;;;11.68;;
60436;SDS011;46289;51.992;4.498;2023-04-15T06:32:13;27.02;;;11.13;;
60436;SDS011;46289;51.992;4.498;2023-04-15T06:34:21;31.60;;;12.05;;
60436;SDS011;46289;51.992;4.498;2023-04-15T06:36:26;21.95;;;11.43;;
60436;SDS011;46289;51.992;4.498;2023-04-15T06:38:32;29.30;;;12.57;;
60436;SDS011;46289;51.992;4.498;2023-04-15T06:40:39;20.98;;;10.45;;
60436;SDS011;46289;51.992;4.498;2023-04-15T06:42:45;23.75;;;12.25;;
60436;SDS011;46289;51.992;4.498;2023-04-15T06:44:52;23.27;;;12.00;;
60436;SDS011;46289;51.992;4.498;2023-04-15T06:46:58;22.60;;;11.05;;
60436;SDS011;46289;51.992;4.498;2023-04-15T06:49:03;21.30;;;10.60;;
60436;SDS011;46289;51.992;4.498;2023-04-15T06:51:08;24.63;;;11.80;;
60436;SDS011;46289;51.992;4.498;2023-04-15T06:53:13;20.90;;;11.60;;
60436;SDS011;46289;51.992;4.498;2023-04-15T06:55:21;25.48;;;11.35;;
60436;SDS011;46289;51.992;4.498;2023-04-15T06:57:26;24.65;;;12.30;;
60436;SDS011;46289;51.992;4.498;2023-04-15T06:59:35;22.17;;;11.13;;
60436;SDS011;46289;51.992;4.498;2023-04-15T07:01:43;23.65;;;10.88;;
60436;SDS011;46289;51.992;4.498;2023-04-15T07:03:49;23.77;;;11.43;;
60436;SDS011;46289;51.992;4.498;2023-04-15T07:05:55;26.73;;;11.52;;
60436;SDS011;46289;51.992;4.498;2023-04-15T07:08:00;24.50;;;11.13;;
60436;SDS011;46289;51.992;4.498;2023-04-15T07:10:06;21.08;;;10.95;;
60436;SDS011;46289;51.992;4.498;2023-04-15T07:12:12;21.50;;;11.13;;
60436;SDS011;46289;51.992;4.498;2023-04-15T07:17:14;19.33;;;10.68;;
60436;SDS011;46289;51.992;4.498;2023-04-15T07:19:22;24.48;;;11.48;;
60436;SDS011;46289;51.992;4.498;2023-04-15T07:21:27;20.85;;;11.23;;
60436;SDS011;46289;51.992;4.498;2023-04-15T07:23:32;25.50;;;11.38;;
60436;SDS011;46289;51.992;4.498;2023-04-15T07:25:38;22.70;;;11.13;;
60436;SDS011;46289;51.992;4.498;2023-04-15T07:27:43;23.60;;;11.20;;
60436;SDS011;46289;51.992;4.498;2023-04-15T07:29:48;21.27;;;10.48;;
60436;SDS011;46289;51.992;4.498;2023-04-15T07:31:54;23.48;;;11.68;;
60436;SDS011;46289;51.992;4.498;2023-04-15T07:34:02;21.65;;;10.45;;
60436;SDS011;46289;51.992;4.498;2023-04-15T07:36:07;19.77;;;10.43;;
60436;SDS011;46289;51.992;4.498;2023-04-15T07:38:12;17.95;;;10.45;;
60436;SDS011;46289;51.992;4.498;2023-04-15T07:40:21;20.23;;;10.90;;
60436;SDS011;46289;51.992;4.498;2023-04-15T07:42:26;20.33;;;11.13;;
60436;SDS011;46289;51.992;4.498;2023-04-15T07:44:32;20.23;;;10.05;;
60436;SDS011;46289;51.992;4.498;2023-04-15T07:46:37;19.08;;;9.35;;
60436;SDS011;46289;51.992;4.498;2023-04-15T07:48:42;20.05;;;10.18;;
60436;SDS011;46289;51.992;4.498;2023-04-15T07:50:50;19.27;;;9.98;;
60436;SDS011;46289;51.992;4.498;2023-04-15T07:52:55;19.55;;;10.38;;
60436;SDS011;46289;51.992;4.498;2023-04-15T07:55:01;23.10;;;10.90;;
60436;SDS011;46289;51.992;4.498;2023-04-15T07:57:10;21.77;;;10.35;;
60436;SDS011;46289;51.992;4.498;2023-04-15T07:59:16;18.92;;;9.60;;
60436;SDS011;46289;51.992;4.498;2023-04-15T08:01:24;19.02;;;10.20;;
60436;SDS011;46289;51.992;4.498;2023-04-15T08:03:29;18.00;;;10.38;;
60436;SDS011;46289;51.992;4.498;2023-04-15T08:05:35;23.40;;;11.25;;
60436;SDS011;46289;51.992;4.498;2023-04-15T08:07:44;18.60;;;10.88;;
60436;SDS011;46289;51.992;4.498;2023-04-15T08:09:51;21.33;;;11.98;;
60436;SDS011;46289;51.992;4.498;2023-04-15T08:11:56;21.55;;;10.43;;
60436;SDS011;46289;51.992;4.498;2023-04-15T08:14:01;22.42;;;9.75;;
60436;SDS011;46289;51.992;4.498;2023-04-15T08:16:14;22.13;;;10.10;;
60436;SDS011;46289;51.992;4.498;2023-04-15T08:18:25;19.95;;;9.48;;
60436;SDS011;46289;51.992;4.498;2023-04-15T08:20:30;24.27;;;10.80;;
60436;SDS011;46289;51.992;4.498;2023-04-15T08:22:35;19.15;;;9.90;;
60436;SDS011;46289;51.992;4.498;2023-04-15T08:24:42;17.77;;;9.43;;
60436;SDS011;46289;51.992;4.498;2023-04-15T08:26:48;20.73;;;10.65;;
60436;SDS011;46289;51.992;4.498;2023-04-15T08:28:53;18.90;;;9.85;;
60436;SDS011;46289;51.992;4.498;2023-04-15T08:30:58;21.38;;;9.52;;
60436;SDS011;46289;51.992;4.498;2023-04-15T08:33:04;17.95;;;8.98;;
60436;SDS011;46289;51.992;4.498;2023-04-15T08:35:09;18.27;;;10.27;;
60436;SDS011;46289;51.992;4.498;2023-04-15T08:37:15;21.15;;;10.40;;
60436;SDS011;46289;51.992;4.498;2023-04-15T08:39:19;21.45;;;9.55;;
60436;SDS011;46289;51.992;4.498;2023-04-15T08:41:27;19.35;;;10.75;;
60436;SDS011;46289;51.992;4.498;2023-04-15T08:43:36;21.13;;;10.50;;
60436;SDS011;46289;51.992;4.498;2023-04-15T08:45:45;22.00;;;10.02;;
60436;SDS011;46289;51.992;4.498;2023-04-15T08:47:52;19.10;;;9.60;;
60436;SDS011;46289;51.992;4.498;2023-04-15T08:50:00;21.60;;;10.35;;
60436;SDS011;46289;51.992;4.498;2023-04-15T08:52:07;17.30;;;9.82;;
60436;SDS011;46289;51.992;4.498;2023-04-15T08:54:13;23.13;;;10.38;;
60436;SDS011;46289;51.992;4.498;2023-04-15T08:56:22;18.95;;;9.63;;
60436;SDS011;46289;51.992;4.498;2023-04-15T08:58:34;24.42;;;11.85;;
60436;SDS011;46289;51.992;4.498;2023-04-15T09:00:41;20.50;;;9.30;;
60436;SDS011;46289;51.992;4.498;2023-04-15T09:02:46;20.00;;;10.65;;
60436;SDS011;46289;51.992;4.498;2023-04-15T09:04:54;24.20;;;11.32;;
60436;SDS011;46289;51.992;4.498;2023-04-15T09:06:59;21.27;;;9.07;;
60436;SDS011;46289;51.992;4.498;2023-04-15T09:09:05;19.75;;;9.43;;
60436;SDS011;46289;51.992;4.498;2023-04-15T09:11:11;19.27;;;9.32;;
60436;SDS011;46289;51.992;4.498;2023-04-15T09:13:16;19.08;;;9.38;;
60436;SDS011;46289;51.992;4.498;2023-04-15T09:15:29;18.45;;;8.70;;
60436;SDS011;46289;51.992;4.498;2023-04-15T09:17:40;19.30;;;8.32;;
60436;SDS011;46289;51.992;4.498;2023-04-15T09:19:49;19.60;;;8.95;;
60436;SDS011;46289;51.992;4.498;2023-04-15T09:22:14;20.80;;;9.63;;
60436;SDS011;46289;51.992;4.498;2023-04-15T09:24:22;20.92;;;8.63;;
60436;SDS011;46289;51.992;4.498;2023-04-15T09:26:33;16.40;;;7.85;;
60436;SDS011;46289;51.992;4.498;2023-04-15T09:28:41;19.38;;;7.93;;
60436;SDS011;46289;51.992;4.498;2023-04-15T09:30:48;20.95;;;8.40;;
60436;SDS011;46289;51.992;4.498;2023-04-15T09:32:57;16.40;;;7.25;;
60436;SDS011;46289;51.992;4.498;2023-04-15T09:35:11;17.77;;;7.15;;
60436;SDS011;46289;51.992;4.498;2023-04-15T09:37:24;19.83;;;6.82;;
60436;SDS011;46289;51.992;4.498;2023-04-15T09:39:45;16.02;;;6.47;;
60436;SDS011;46289;51.992;4.498;2023-04-15T09:42:04;15.82;;;5.70;;
60436;SDS011;46289;51.992;4.498;2023-04-15T09:44:20;15.63;;;5.55;;
60436;SDS011;46289;51.992;4.498;2023-04-15T09:46:42;11.88;;;5.70;;
60436;SDS011;46289;51.992;4.498;2023-04-15T09:48:52;14.18;;;5.47;;
60436;SDS011;46289;51.992;4.498;2023-04-15T09:51:12;7.18;;;3.72;;
60436;SDS011;46289;51.992;4.498;2023-04-15T09:53:20;9.63;;;4.30;;
60436;SDS011;46289;51.992;4.498;2023-04-15T09:55:26;11.43;;;4.03;;
60436;SDS011;46289;51.992;4.498;2023-04-15T09:57:33;14.75;;;4.97;;
60436;SDS011;46289;51.992;4.498;2023-04-15T09:59:39;17.67;;;5.53;;
60436;SDS011;46289;51.992;4.498;2023-04-15T10:01:48;13.23;;;5.63;;
60436;SDS011;46289;51.992;4.498;2023-04-15T10:03:53;11.93;;;5.43;;
60436;SDS011;46289;51.992;4.498;2023-04-15T10:06:01;10.45;;;4.00;;
60436;SDS011;46289;51.992;4.498;2023-04-15T10:08:06;10.18;;;4.35;;
60436;SDS011;46289;51.992;4.498;2023-04-15T10:10:12;8.18;;;3.80;;
60436;SDS011;46289;51.992;4.498;2023-04-15T10:12:20;12.48;;;4.38;;
60436;SDS011;46289;51.992;4.498;2023-04-15T10:14:27;10.40;;;3.83;;
60436;SDS011;46289;51.992;4.498;2023-04-15T10:16:35;9.63;;;4.30;;
60436;SDS011;46289;51.992;4.498;2023-04-15T10:18:50;10.70;;;4.32;;
60436;SDS011;46289;51.992;4.498;2023-04-15T10:20:58;10.18;;;4.20;;
60436;SDS011;46289;51.992;4.498;2023-04-15T10:23:04;10.93;;;4.60;;
60436;SDS011;46289;51.992;4.498;2023-04-15T10:25:13;11.30;;;5.60;;
60436;SDS011;46289;51.992;4.498;2023-04-15T10:27:19;9.75;;;4.28;;
60436;SDS011;46289;51.992;4.498;2023-04-15T10:29:25;11.70;;;4.70;;
60436;SDS011;46289;51.992;4.498;2023-04-15T10:31:30;11.18;;;5.18;;
60436;SDS011;46289;51.992;4.498;2023-04-15T10:33:39;11.90;;;5.13;;
60436;SDS011;46289;51.992;4.498;2023-04-15T10:35:48;14.13;;;5.60;;
60436;SDS011;46289;51.992;4.498;2023-04-15T10:37:55;10.32;;;4.97;;
60436;SDS011;46289;51.992;4.498;2023-04-15T10:40:00;13.02;;;6.15;;
60436;SDS011;46289;51.992;4.498;2023-04-15T10:42:32;11.82;;;5.30;;
60436;SDS011;46289;51.992;4.498;2023-04-15T10:44:38;17.55;;;6.30;;
60436;SDS011;46289;51.992;4.498;2023-04-15T10:46:46;8.25;;;4.07;;
60436;SDS011;46289;51.992;4.498;2023-04-15T10:48:52;10.23;;;4.07;;
60436;SDS011;46289;51.992;4.498;2023-04-15T10:51:02;9.73;;;4.88;;
60436;SDS011;46289;51.992;4.498;2023-04-15T10:53:09;11.25;;;5.25;;
60436;SDS011;46289;51.992;4.498;2023-04-15T10:55:18;11.48;;;4.78;;
60436;SDS011;46289;51.992;4.498;2023-04-15T10:57:26;12.00;;;4.82;;
60436;SDS011;46289;51.992;4.498;2023-04-15T11:02:05;13.18;;;4.93;;
60436;SDS011;46289;51.992;4.498;2023-04-15T11:04:12;10.57;;;4.47;;
60436;SDS011;46289;51.992;4.498;2023-04-15T11:06:24;9.98;;;4.65;;
60436;SDS011;46289;51.992;4.498;2023-04-15T11:08:53;12.95;;;4.55;;
60436;SDS011;46289;51.992;4.498;2023-04-15T11:13:14;12.85;;;5.05;;
60436;SDS011;46289;51.992;4.498;2023-04-15T11:15:26;10.75;;;5.15;;
60436;SDS011;46289;51.992;4.498;2023-04-15T11:17:33;12.25;;;5.15;;
60436;SDS011;46289;51.992;4.498;2023-04-15T11:19:38;13.60;;;5.35;;
60436;SDS011;46289;51.992;4.498;2023-04-15T11:21:52;10.43;;;4.53;;
60436;SDS011;46289;51.992;4.498;2023-04-15T11:23:58;9.45;;;4.55;;
60436;SDS011;46289;51.992;4.498;2023-04-15T11:26:08;11.45;;;4.88;;
60436;SDS011;46289;51.992;4.498;2023-04-15T11:28:14;11.02;;;5.53;;
60436;SDS011;46289;51.992;4.498;2023-04-15T11:30:24;11.05;;;4.82;;
60436;SDS011;46289;51.992;4.498;2023-04-15T11:32:30;12.50;;;5.40;;
60436;SDS011;46289;51.992;4.498;2023-04-15T11:34:34;11.43;;;5.45;;
60436;SDS011;46289;51.992;4.498;2023-04-15T11:36:41;12.57;;;5.28;;
60436;SDS011;46289;51.992;4.498;2023-04-15T11:38:52;11.35;;;5.13;;
60436;SDS011;46289;51.992;4.498;2023-04-15T11:40:58;10.25;;;5.18;;
60436;SDS011;46289;51.992;4.498;2023-04-15T11:43:04;11.02;;;4.35;;
60436;SDS011;46289;51.992;4.498;2023-04-15T11:45:10;11.60;;;4.75;;
60436;SDS011;46289;51.992;4.498;2023-04-15T11:47:22;8.30;;;4.30;;
60436;SDS011;46289;51.992;4.498;2023-04-15T11:49:28;9.10;;;4.90;;
60436;SDS011;46289;51.992;4.498;2023-04-15T11:51:35;8.38;;;4.45;;
60436;SDS011;46289;51.992;4.498;2023-04-15T11:53:43;10.85;;;5.15;;
60436;SDS011;46289;51.992;4.498;2023-04-15T11:55:52;9.20;;;4.53;;
60436;SDS011;46289;51.992;4.498;2023-04-15T11:58:07;10.88;;;4.30;;
60436;SDS011;46289;51.992;4.498;2023-04-15T12:00:16;13.43;;;5.03;;
60436;SDS011;46289;51.992;4.498;2023-04-15T12:02:29;11.35;;;4.93;;
60436;SDS011;46289;51.992;4.498;2023-04-15T12:04:35;8.57;;;4.43;;
60436;SDS011;46289;51.992;4.498;2023-04-15T12:06:40;11.07;;;4.85;;
60436;SDS011;46289;51.992;4.498;2023-04-15T12:08:58;10.55;;;5.53;;
60436;SDS011;46289;51.992;4.498;2023-04-15T12:13:19;15.45;;;5.22;;
60436;SDS011;46289;51.992;4.498;2023-04-15T12:15:24;11.20;;;4.95;;
60436;SDS011;46289;51.992;4.498;2023-04-15T12:17:29;9.15;;;4.25;;
60436;SDS011;46289;51.992;4.498;2023-04-15T12:19:54;10.13;;;4.80;;
60436;SDS011;46289;51.992;4.498;2023-04-15T12:22:00;8.35;;;4.40;;
60436;SDS011;46289;51.992;4.498;2023-04-15T12:24:07;11.20;;;4.80;;
60436;SDS011;46289;51.992;4.498;2023-04-15T12:26:16;10.57;;;4.88;;
60436;SDS011;46289;51.992;4.498;2023-04-15T12:28:25;9.75;;;4.53;;
60436;SDS011;46289;51.992;4.498;2023-04-15T12:30:34;14.15;;;3.97;;
60436;SDS011;46289;51.992;4.498;2023-04-15T12:32:39;10.73;;;4.45;;
60436;SDS011;46289;51.992;4.498;2023-04-15T12:34:49;9.27;;;4.07;;
60436;SDS011;46289;51.992;4.498;2023-04-15T12:36:58;8.98;;;3.58;;
60436;SDS011;46289;51.992;4.498;2023-04-15T12:39:04;8.02;;;3.92;;
60436;SDS011;46289;51.992;4.498;2023-04-15T12:41:09;9.88;;;3.63;;